createdAt,value
2023-05-21T00:02:20.174Z,20.92
2023-05-21T00:04:48.468Z,23.45
2023-05-21T00:07:15.984Z,18.73
2023-05-21T00:09:43.359Z,19.70
2023-05-21T00:12:11.493Z,21.17
2023-05-21T00:14:38.964Z,22.40
2023-05-21T00:17:06.537Z,22.58
2023-05-21T00:19:33.947Z,20.70
2023-05-21T00:22:04.592Z,19.42
2023-05-21T00:24:32.061Z,20.40
2023-05-21T00:26:59.463Z,24.17
2023-05-21T00:29:27.813Z,20.00
2023-05-21T00:31:55.953Z,21.73
2023-05-21T00:34:23.761Z,20.02
2023-05-21T00:36:53.388Z,20.75
2023-05-21T00:39:21.071Z,19.95
2023-05-21T00:41:48.779Z,23.02
2023-05-21T00:44:18.410Z,20.25
2023-05-21T00:46:48.835Z,23.50
2023-05-21T00:49:17.057Z,21.55
2023-05-21T00:51:45.972Z,21.23
2023-05-21T00:54:13.547Z,25.85
2023-05-21T00:56:42.149Z,22.83
2023-05-21T00:59:09.709Z,24.38
2023-05-21T01:01:37.343Z,23.90
2023-05-21T01:04:05.380Z,29.10
2023-05-21T01:06:35.569Z,27.95
2023-05-21T01:09:05.453Z,28.52
2023-05-21T01:11:46.180Z,33.08
2023-05-21T01:14:15.091Z,28.50
2023-05-21T01:16:46.469Z,33.25
2023-05-21T01:19:20.283Z,40.17
2023-05-21T01:21:52.960Z,34.78
2023-05-21T01:24:20.635Z,33.50
2023-05-21T01:26:48.244Z,34.65
2023-05-21T01:29:15.938Z,34.30
2023-05-21T01:32:05.740Z,35.83
2023-05-21T01:34:55.926Z,33.28
2023-05-21T01:37:31.166Z,31.83
2023-05-21T01:40:21.443Z,35.58
2023-05-21T01:42:49.152Z,39.97
2023-05-21T01:45:17.641Z,38.22
2023-05-21T01:47:49.274Z,36.50
2023-05-21T01:50:18.851Z,41.30
2023-05-21T01:52:54.071Z,38.38
2023-05-21T01:55:24.818Z,42.60
2023-05-21T01:57:56.023Z,34.45
2023-05-21T02:00:25.626Z,40.28
2023-05-21T02:02:53.982Z,49.47
2023-05-21T02:05:22.602Z,42.88
2023-05-21T02:07:52.087Z,41.90
2023-05-21T02:10:19.962Z,39.10
2023-05-21T02:12:47.486Z,36.65
2023-05-21T02:15:17.934Z,41.58
2023-05-21T02:17:46.525Z,43.42
2023-05-21T02:20:14.483Z,34.85
2023-05-21T02:22:47.514Z,40.63
2023-05-21T02:25:17.064Z,33.08
2023-05-21T02:27:46.857Z,35.78
2023-05-21T02:30:17.267Z,40.60
2023-05-21T02:32:45.544Z,40.33
2023-05-21T02:35:13.841Z,40.45
2023-05-21T02:37:41.430Z,35.88
2023-05-21T02:40:12.516Z,35.53
2023-05-21T02:42:41.511Z,37.58
2023-05-21T02:45:12.420Z,35.47
2023-05-21T02:47:42.393Z,42.72
2023-05-21T02:50:09.989Z,37.30
2023-05-21T02:52:44.855Z,35.38
2023-05-21T02:55:13.305Z,34.03
2023-05-21T02:57:40.736Z,34.78
2023-05-21T03:00:09.818Z,31.60
2023-05-21T03:02:39.180Z,53.72
2023-05-21T03:05:07.464Z,36.45
2023-05-21T03:07:34.977Z,39.75
2023-05-21T03:10:02.490Z,32.15
2023-05-21T03:12:30.061Z,34.25
2023-05-21T03:14:57.691Z,36.45
2023-05-21T03:17:25.470Z,36.20
2023-05-21T03:19:54.674Z,34.72
2023-05-21T03:22:22.173Z,38.63
2023-05-21T03:24:49.683Z,37.47
2023-05-21T03:27:19.269Z,36.35
2023-05-21T03:29:48.399Z,36.17
2023-05-21T03:32:15.960Z,33.80
2023-05-21T03:34:44.321Z,36.85
2023-05-21T03:37:11.849Z,35.65
2023-05-21T03:39:39.324Z,35.67
2023-05-21T03:42:07.552Z,39.25
2023-05-21T03:44:42.079Z,35.65
2023-05-21T03:47:44.823Z,33.38
2023-05-21T03:50:12.843Z,32.53
2023-05-21T03:52:40.545Z,35.50
2023-05-21T03:55:08.428Z,30.48
2023-05-21T03:57:37.061Z,34.13
2023-05-21T04:00:06.225Z,33.92
2023-05-21T04:02:43.254Z,38.70
2023-05-21T04:05:12.363Z,31.98
2023-05-21T04:07:40.560Z,30.83
2023-05-21T04:10:08.705Z,34.67
2023-05-21T04:12:36.133Z,30.58
2023-05-21T04:15:05.780Z,35.97
2023-05-21T04:17:34.591Z,31.67
2023-05-21T04:20:03.846Z,29.75
2023-05-21T04:22:31.664Z,30.60
2023-05-21T04:24:59.694Z,35.72
2023-05-21T04:27:31.898Z,26.50
2023-05-21T04:29:59.351Z,30.05
2023-05-21T04:32:28.675Z,27.67
2023-05-21T04:34:56.339Z,26.95
2023-05-21T04:37:27.907Z,27.83
2023-05-21T04:39:57.440Z,24.63
2023-05-21T04:42:26.280Z,33.17
2023-05-21T04:44:56.436Z,34.88
2023-05-21T04:47:24.290Z,24.88
2023-05-21T04:49:51.781Z,26.08
2023-05-21T04:52:19.304Z,25.17
2023-05-21T04:54:47.833Z,23.63
2023-05-21T04:57:15.644Z,21.50
2023-05-21T04:59:43.781Z,24.80
2023-05-21T05:02:11.329Z,22.90
2023-05-21T05:04:38.971Z,26.15
2023-05-21T05:07:07.473Z,18.25
2023-05-21T05:09:34.989Z,20.58
2023-05-21T05:12:02.469Z,21.52
2023-05-21T05:14:30.000Z,23.02
2023-05-21T05:17:00.839Z,26.60
2023-05-21T05:19:29.239Z,17.95
2023-05-21T05:21:56.968Z,21.30
2023-05-21T05:24:24.388Z,21.33
2023-05-21T05:26:52.217Z,27.02
2023-05-21T05:29:19.661Z,21.90
2023-05-21T05:31:48.263Z,26.38
2023-05-21T05:34:16.377Z,20.90
2023-05-21T05:36:43.809Z,27.75
2023-05-21T05:39:11.356Z,25.63
2023-05-21T05:41:39.890Z,26.52
2023-05-21T05:44:09.522Z,29.45
2023-05-21T05:46:38.578Z,30.55
2023-05-21T05:49:07.473Z,31.20
2023-05-21T05:51:34.980Z,26.30
2023-05-21T05:54:02.686Z,26.88
2023-05-21T05:56:30.138Z,24.23
2023-05-21T05:58:59.231Z,23.23
2023-05-21T06:01:28.086Z,25.60
2023-05-21T06:03:57.391Z,22.00
2023-05-21T06:06:25.078Z,25.98
2023-05-21T06:08:52.622Z,25.67
2023-05-21T06:11:21.607Z,26.23
2023-05-21T06:13:49.147Z,29.20
2023-05-21T06:16:18.108Z,28.35
2023-05-21T06:18:45.796Z,27.52
2023-05-21T06:21:13.307Z,21.08
2023-05-21T06:23:40.831Z,20.50
2023-05-21T06:26:08.605Z,25.85
2023-05-21T06:28:36.305Z,26.33
2023-05-21T06:31:04.465Z,57.70
2023-05-21T06:33:33.363Z,37.92
2023-05-21T06:36:01.616Z,25.50
2023-05-21T06:38:29.401Z,21.83
2023-05-21T06:40:58.518Z,20.70
2023-05-21T06:43:51.624Z,22.77
2023-05-21T06:46:38.119Z,24.70
2023-05-21T06:49:08.549Z,19.67
2023-05-21T06:51:36.016Z,23.73
2023-05-21T06:54:04.522Z,23.73
2023-05-21T06:56:32.946Z,22.33
2023-05-21T06:59:00.422Z,19.38
2023-05-21T07:01:28.652Z,21.02
2023-05-21T07:03:56.190Z,20.00
2023-05-21T07:06:25.790Z,24.10
2023-05-21T07:08:53.282Z,16.30
2023-05-21T07:11:21.389Z,18.40
2023-05-21T07:13:48.963Z,28.58
2023-05-21T07:16:17.968Z,15.00
2023-05-21T07:18:47.261Z,15.70
2023-05-21T07:21:14.912Z,17.23
2023-05-21T07:23:42.386Z,14.55
2023-05-21T07:26:10.956Z,57.95
2023-05-21T07:28:38.492Z,13.65
2023-05-21T07:31:06.242Z,13.82
2023-05-21T07:33:39.919Z,17.33
2023-05-21T07:36:09.673Z,10.93
2023-05-21T07:38:38.030Z,11.77
2023-05-21T07:41:05.631Z,14.85
2023-05-21T07:43:33.401Z,9.98
2023-05-21T07:46:01.052Z,11.85
2023-05-21T07:48:28.904Z,10.80
2023-05-21T07:50:59.330Z,16.85
2023-05-21T07:53:27.786Z,12.32
2023-05-21T07:55:57.371Z,11.05
2023-05-21T07:58:28.103Z,10.68
2023-05-21T08:00:55.867Z,10.10
2023-05-21T08:03:23.462Z,11.20
2023-05-21T08:05:51.155Z,12.57
2023-05-21T08:08:19.907Z,9.55
2023-05-21T08:10:48.100Z,9.57
2023-05-21T08:13:16.734Z,17.27
2023-05-21T08:15:44.684Z,16.10
2023-05-21T08:18:12.672Z,9.13
2023-05-21T08:20:43.004Z,10.65
2023-05-21T08:23:10.656Z,13.05
2023-05-21T08:25:42.843Z,9.13
2023-05-21T08:28:11.258Z,13.95
2023-05-21T08:30:41.410Z,18.35
2023-05-21T08:33:08.922Z,14.18
2023-05-21T08:35:36.614Z,11.10
2023-05-21T08:38:28.790Z,11.15
2023-05-21T08:41:16.588Z,12.88
2023-05-21T08:43:49.866Z,13.35
2023-05-21T08:46:23.221Z,13.52
2023-05-21T08:48:55.095Z,12.95
2023-05-21T08:51:23.535Z,8.27
2023-05-21T08:53:53.238Z,10.13
2023-05-21T08:56:21.796Z,10.80
2023-05-21T08:58:54.185Z,9.63
2023-05-21T09:01:26.636Z,7.78
2023-05-21T09:04:21.381Z,8.18
2023-05-21T09:06:52.142Z,8.27
2023-05-21T09:09:39.914Z,8.25
2023-05-21T09:12:08.584Z,10.25
2023-05-21T09:14:38.151Z,7.60
2023-05-21T09:17:20.463Z,8.75
2023-05-21T09:20:11.158Z,7.32
2023-05-21T09:22:45.331Z,7.75
2023-05-21T09:25:17.425Z,7.80
2023-05-21T09:27:45.402Z,6.72
2023-05-21T09:30:14.757Z,11.55
2023-05-21T09:32:43.211Z,15.77
2023-05-21T09:35:12.314Z,8.80
2023-05-21T09:37:45.062Z,7.97
2023-05-21T09:40:17.220Z,7.55
2023-05-21T09:42:51.059Z,7.13
2023-05-21T09:45:23.127Z,13.25
2023-05-21T09:47:54.272Z,8.32
2023-05-21T09:50:28.575Z,7.28
2023-05-21T09:52:58.626Z,10.57
2023-05-21T09:55:27.059Z,10.70
2023-05-21T09:57:54.484Z,8.93
2023-05-21T10:00:27.651Z,15.15
2023-05-21T10:02:56.865Z,10.35
2023-05-21T10:05:29.234Z,10.93
2023-05-21T10:08:02.229Z,8.25
2023-05-21T10:10:31.129Z,8.18
2023-05-21T10:12:59.855Z,10.40
2023-05-21T10:15:32.284Z,9.88
2023-05-21T10:18:00.516Z,10.15
2023-05-21T10:20:28.061Z,7.78
2023-05-21T10:22:56.943Z,8.65
2023-05-21T10:25:26.268Z,7.00
2023-05-21T10:27:57.134Z,11.02
2023-05-21T10:30:25.239Z,8.52
2023-05-21T10:32:55.709Z,8.85
2023-05-21T10:35:23.464Z,7.85
2023-05-21T10:37:52.808Z,8.57
2023-05-21T10:40:21.157Z,10.63
2023-05-21T10:43:07.291Z,10.95
2023-05-21T10:46:12.721Z,9.98
2023-05-21T10:49:14.109Z,7.18
2023-05-21T10:52:15.553Z,11.95
2023-05-21T10:55:28.152Z,7.55
2023-05-21T11:00:35.424Z,8.48
2023-05-21T11:03:04.127Z,7.93
2023-05-21T11:05:53.338Z,7.72
2023-05-21T11:08:31.679Z,6.32
2023-05-21T11:10:59.447Z,8.68
2023-05-21T11:13:30.451Z,12.68
2023-05-21T11:15:58.663Z,13.43
2023-05-21T11:18:38.487Z,12.95
2023-05-21T11:21:09.212Z,10.23
2023-05-21T11:23:51.345Z,10.50
2023-05-21T11:26:24.180Z,9.93
2023-05-21T11:29:08.918Z,14.75
2023-05-21T11:31:40.903Z,14.15
2023-05-21T11:34:13.885Z,8.50
2023-05-21T11:36:44.855Z,10.65
2023-05-21T11:39:15.715Z,14.05
2023-05-21T11:42:00.463Z,9.88
2023-05-21T11:44:45.792Z,13.02
2023-05-21T11:47:20.150Z,8.20
2023-05-21T11:49:48.139Z,9.55
2023-05-21T11:52:15.646Z,9.48
2023-05-21T11:54:51.843Z,11.07
2023-05-21T11:57:20.110Z,8.73
2023-05-21T11:59:48.474Z,9.43
2023-05-21T12:02:20.857Z,8.50
2023-05-21T12:04:50.194Z,10.70
2023-05-21T12:07:21.973Z,9.43
2023-05-21T12:09:51.614Z,11.70
2023-05-21T12:12:24.118Z,9.95
2023-05-21T12:14:53.575Z,7.95
2023-05-21T12:17:24.899Z,12.10
2023-05-21T12:19:56.903Z,8.20
2023-05-21T12:22:25.105Z,8.77
2023-05-21T12:24:54.667Z,9.07
2023-05-21T12:27:22.642Z,11.90
2023-05-21T12:29:54.241Z,8.20
2023-05-21T12:32:22.113Z,12.00
2023-05-21T12:34:52.677Z,7.82
2023-05-21T12:37:27.951Z,7.82
2023-05-21T12:39:58.303Z,10.85
2023-05-21T12:42:29.894Z,10.48
2023-05-21T12:44:57.887Z,9.95
2023-05-21T12:47:26.768Z,11.98
2023-05-21T12:49:58.380Z,15.05
2023-05-21T12:52:27.178Z,10.88
2023-05-21T12:54:56.646Z,9.10
2023-05-21T12:57:34.766Z,7.00
2023-05-21T13:00:04.440Z,11.75
2023-05-21T13:02:33.985Z,8.93
2023-05-21T13:05:04.136Z,11.50
2023-05-21T13:07:33.053Z,13.00
2023-05-21T13:10:01.576Z,7.45
2023-05-21T13:12:31.286Z,15.13
2023-05-21T13:15:00.949Z,8.77
2023-05-21T13:17:28.984Z,9.13
2023-05-21T13:20:16.790Z,10.32
2023-05-21T13:22:49.682Z,9.93
2023-05-21T13:25:21.245Z,17.73
2023-05-21T13:27:50.197Z,10.88
2023-05-21T13:30:18.927Z,15.30
2023-05-21T13:32:46.999Z,11.85
2023-05-21T13:35:16.467Z,10.70
2023-05-21T13:37:44.709Z,12.25
2023-05-21T13:40:17.351Z,9.95
2023-05-21T13:42:46.641Z,11.07
2023-05-21T13:45:17.708Z,11.70
2023-05-21T13:47:46.406Z,11.50
2023-05-21T13:50:14.181Z,7.38
2023-05-21T13:52:41.813Z,10.57
2023-05-21T13:55:10.567Z,11.63
2023-05-21T13:57:38.168Z,8.40
2023-05-21T14:00:06.449Z,10.57
2023-05-21T14:02:35.115Z,9.93
2023-05-21T14:05:02.622Z,10.10
2023-05-21T14:07:30.051Z,13.10
2023-05-21T14:09:57.484Z,10.70
2023-05-21T14:12:24.948Z,9.23
2023-05-21T14:14:52.495Z,9.65
2023-05-21T14:17:19.907Z,10.68
2023-05-21T14:19:48.122Z,12.75
2023-05-21T14:22:15.668Z,8.57
2023-05-21T14:24:43.050Z,8.40
2023-05-21T14:27:11.111Z,9.38
2023-05-21T14:29:39.574Z,12.50
2023-05-21T14:32:07.825Z,9.20
2023-05-21T14:34:35.412Z,17.85
2023-05-21T14:37:02.821Z,8.40
2023-05-21T14:39:30.225Z,10.05
2023-05-21T14:41:57.607Z,11.98
2023-05-21T14:44:24.999Z,6.80
2023-05-21T14:46:52.475Z,11.82
2023-05-21T14:49:20.043Z,6.55
2023-05-21T14:51:47.704Z,8.38
2023-05-21T14:54:15.357Z,6.68
2023-05-21T14:56:42.718Z,8.02
2023-05-21T14:59:12.718Z,9.13
2023-05-21T15:01:40.310Z,7.70
2023-05-21T15:04:08.216Z,8.02
2023-05-21T15:06:35.870Z,9.18
2023-05-21T15:09:03.397Z,6.97
2023-05-21T15:11:30.905Z,8.30
2023-05-21T15:13:58.296Z,11.95
2023-05-21T15:16:25.898Z,9.05
2023-05-21T15:18:53.693Z,8.63
2023-05-21T15:21:21.184Z,11.05
2023-05-21T15:23:48.612Z,9.88
2023-05-21T15:26:16.025Z,7.57
2023-05-21T15:28:43.567Z,10.93
2023-05-21T15:31:12.498Z,7.55
2023-05-21T15:33:39.910Z,8.98
2023-05-21T15:36:07.709Z,8.60
2023-05-21T15:38:35.176Z,8.57
2023-05-21T15:41:02.647Z,11.35
2023-05-21T15:43:30.650Z,7.97
2023-05-21T15:45:58.446Z,9.85
2023-05-21T15:48:25.835Z,7.63
2023-05-21T15:50:53.282Z,9.02
2023-05-21T15:53:20.737Z,7.68
2023-05-21T15:55:48.330Z,7.95
2023-05-21T15:58:16.446Z,8.18
2023-05-21T16:00:43.852Z,10.50
2023-05-21T16:03:12.653Z,10.48
2023-05-21T16:05:40.162Z,10.45
2023-05-21T16:08:10.683Z,8.07
2023-05-21T16:10:40.001Z,12.38
2023-05-21T16:13:07.588Z,8.55
2023-05-21T16:15:35.148Z,6.97
2023-05-21T16:18:02.822Z,8.55
2023-05-21T16:20:31.010Z,9.48
2023-05-21T16:22:58.460Z,12.38
2023-05-21T16:25:26.034Z,9.30
2023-05-21T16:27:53.465Z,11.20
2023-05-21T16:30:24.257Z,9.25
2023-05-21T16:32:51.752Z,10.05
2023-05-21T16:35:19.404Z,9.95
2023-05-21T16:37:46.779Z,8.07
2023-05-21T16:40:14.259Z,9.00
2023-05-21T16:42:41.712Z,11.02
2023-05-21T16:45:09.560Z,8.05
2023-05-21T16:47:37.000Z,8.57
2023-05-21T16:50:05.122Z,10.70
2023-05-21T16:52:32.519Z,7.28
2023-05-21T16:54:59.903Z,9.75
2023-05-21T16:57:27.321Z,7.75
2023-05-21T16:59:54.692Z,10.35
2023-05-21T17:02:22.243Z,10.90
2023-05-21T17:04:49.688Z,10.25
2023-05-21T17:07:17.297Z,8.95
2023-05-21T17:09:44.690Z,9.15
2023-05-21T17:12:12.126Z,8.05
2023-05-21T17:14:40.229Z,8.80
2023-05-21T17:17:07.929Z,10.40
2023-05-21T17:19:35.550Z,10.18
2023-05-21T17:22:03.105Z,9.48
2023-05-21T17:24:30.877Z,9.65
2023-05-21T17:26:58.384Z,7.82
2023-05-21T17:29:25.995Z,10.48
2023-05-21T17:31:58.308Z,9.35
2023-05-21T17:34:29.549Z,9.80
2023-05-21T17:36:58.121Z,7.90
2023-05-21T17:39:26.035Z,9.05
2023-05-21T17:41:53.524Z,7.57
2023-05-21T17:44:21.645Z,9.85
2023-05-21T17:46:50.464Z,7.93
2023-05-21T17:49:18.609Z,9.90
2023-05-21T17:51:46.022Z,11.85
2023-05-21T17:54:13.541Z,10.35
2023-05-21T17:56:41.122Z,7.85
2023-05-21T17:59:10.187Z,14.77
2023-05-21T18:01:39.459Z,10.25
2023-05-21T18:04:12.246Z,12.38
2023-05-21T18:06:40.404Z,11.57
2023-05-21T18:09:08.097Z,12.68
2023-05-21T18:11:35.568Z,11.20
2023-05-21T18:14:04.082Z,11.82
2023-05-21T18:16:31.853Z,7.93
2023-05-21T18:19:02.151Z,11.90
2023-05-21T18:21:29.618Z,9.30
2023-05-21T18:23:57.094Z,14.30
2023-05-21T18:26:25.077Z,10.40
2023-05-21T18:28:52.575Z,11.07
2023-05-21T18:31:20.279Z,8.38
2023-05-21T18:33:51.721Z,9.63
2023-05-21T18:36:19.166Z,13.60
2023-05-21T18:38:46.793Z,9.90
2023-05-21T18:41:14.525Z,8.75
2023-05-21T18:43:41.969Z,9.82
2023-05-21T18:46:09.485Z,13.43
2023-05-21T18:48:37.154Z,8.50
2023-05-21T18:51:04.593Z,12.13
2023-05-21T18:53:32.028Z,11.27
2023-05-21T18:55:59.428Z,11.02
2023-05-21T18:58:27.943Z,16.85
2023-05-21T19:00:55.465Z,13.40
2023-05-21T19:03:22.906Z,11.00
2023-05-21T19:05:50.392Z,12.13
2023-05-21T19:08:17.809Z,9.02
2023-05-21T19:13:13.079Z,13.23
2023-05-21T19:15:40.678Z,13.32
2023-05-21T19:18:08.429Z,14.07
2023-05-21T19:20:36.740Z,14.93
2023-05-21T19:23:04.622Z,12.43
2023-05-21T19:25:32.164Z,16.48
2023-05-21T19:28:00.846Z,12.70
2023-05-21T19:30:28.297Z,17.45
2023-05-21T19:32:55.822Z,14.70
2023-05-21T19:35:24.171Z,13.05
2023-05-21T19:37:51.661Z,12.80
2023-05-21T19:40:23.186Z,19.27
2023-05-21T19:42:50.706Z,15.13
2023-05-21T19:45:18.169Z,19.00
2023-05-21T19:47:45.737Z,10.90
2023-05-21T19:50:13.395Z,10.70
2023-05-21T19:52:41.063Z,14.07
2023-05-21T19:55:10.256Z,12.95
2023-05-21T19:57:38.026Z,11.27
2023-05-21T20:00:06.004Z,11.77
2023-05-21T20:02:41.073Z,15.98
2023-05-21T20:05:09.796Z,14.93
2023-05-21T20:07:37.372Z,14.07
2023-05-21T20:10:05.201Z,17.65
2023-05-21T20:12:32.625Z,16.13
2023-05-21T20:15:00.953Z,17.35
2023-05-21T20:17:33.894Z,22.38
2023-05-21T20:20:03.649Z,15.93
2023-05-21T20:22:31.882Z,18.00
2023-05-21T20:24:59.276Z,18.10
2023-05-21T20:27:27.003Z,14.02
2023-05-21T20:29:54.463Z,11.73
2023-05-21T20:32:21.855Z,16.13
2023-05-21T20:35:02.134Z,17.35
2023-05-21T20:37:32.489Z,14.30
2023-05-21T20:39:59.994Z,14.55
2023-05-21T20:42:33.986Z,16.45
2023-05-21T20:45:01.854Z,18.50
2023-05-21T20:47:30.056Z,12.82
2023-05-21T20:49:59.692Z,13.52
2023-05-21T20:52:27.222Z,14.27
2023-05-21T20:54:54.835Z,12.93
2023-05-21T20:57:26.215Z,13.45
2023-05-21T20:59:53.891Z,15.70
2023-05-21T21:02:21.701Z,13.68
2023-05-21T21:04:50.644Z,16.45
2023-05-21T21:07:18.854Z,15.85
2023-05-21T21:09:49.470Z,13.00
2023-05-21T21:14:47.248Z,12.55
2023-05-21T21:17:14.752Z,13.30
2023-05-21T21:19:42.198Z,15.10
2023-05-21T21:22:09.635Z,15.75
2023-05-21T21:24:37.098Z,12.57
2023-05-21T21:27:04.716Z,13.73
2023-05-21T21:29:32.155Z,13.20
2023-05-21T21:31:59.651Z,9.20
2023-05-21T21:34:27.110Z,13.13
2023-05-21T21:36:54.572Z,11.65
2023-05-21T21:39:22.082Z,15.52
2023-05-21T21:41:49.599Z,14.80
2023-05-21T21:44:16.998Z,16.45
2023-05-21T21:46:44.410Z,12.77
2023-05-21T21:49:11.861Z,14.10
2023-05-21T21:51:39.558Z,13.65
2023-05-21T21:54:06.952Z,14.23
2023-05-21T21:56:34.410Z,16.70
2023-05-21T21:59:01.869Z,11.73
2023-05-21T22:01:29.548Z,10.77
2023-05-21T22:03:57.649Z,11.23
2023-05-21T22:06:25.063Z,14.60
2023-05-21T22:08:52.515Z,14.77
2023-05-21T22:11:20.214Z,10.43
2023-05-21T22:13:47.748Z,12.80
2023-05-21T22:16:15.229Z,12.85
2023-05-21T22:18:42.752Z,15.48
2023-05-21T22:21:14.290Z,12.65
2023-05-21T22:23:41.952Z,15.32
2023-05-21T22:26:10.159Z,15.18
2023-05-21T22:28:37.538Z,17.35
2023-05-21T22:31:05.168Z,12.52
2023-05-21T22:33:32.640Z,15.73
2023-05-21T22:36:00.105Z,12.25
2023-05-21T22:38:27.676Z,14.15
2023-05-21T22:40:55.160Z,13.55
2023-05-21T22:43:22.667Z,13.57
2023-05-21T22:45:50.115Z,12.77
2023-05-21T22:48:18.186Z,12.52
2023-05-21T22:50:46.177Z,14.30
2023-05-21T22:53:13.698Z,11.40
2023-05-21T22:55:41.184Z,16.33
2023-05-21T22:58:08.571Z,16.35
2023-05-21T23:00:36.049Z,12.23
2023-05-21T23:03:04.217Z,10.88
2023-05-21T23:05:31.746Z,11.25
2023-05-21T23:07:59.148Z,15.82
2023-05-21T23:10:26.678Z,12.57
2023-05-21T23:13:04.679Z,12.27
2023-05-21T23:15:34.213Z,10.00
2023-05-21T23:18:03.996Z,12.75
2023-05-21T23:20:32.451Z,14.50
2023-05-21T23:22:59.881Z,12.02
2023-05-21T23:25:27.312Z,12.32
2023-05-21T23:27:55.578Z,13.68
2023-05-21T23:30:22.987Z,11.70
2023-05-21T23:32:51.275Z,11.98
2023-05-21T23:35:19.015Z,12.65
2023-05-21T23:37:46.444Z,13.63
2023-05-21T23:40:13.872Z,11.98
2023-05-21T23:42:41.377Z,10.65
2023-05-21T23:45:09.191Z,15.75
2023-05-21T23:47:36.613Z,12.45
2023-05-21T23:50:04.347Z,16.88
2023-05-21T23:52:31.854Z,13.48
2023-05-21T23:54:59.260Z,14.20
2023-05-21T23:57:26.648Z,13.38
2023-05-21T23:59:55.102Z,14.52
